Time;durP1;ratioP1;P1;durP2;ratioP2;P2;SDS_P1;SDS_P2;PMS_P1;PMS_P2;Temp;Humidity;BMP_temperature;BMP_pressure;BME280_temperature;BME280_humidity;BME280_pressure;Samples;Min_cycle;Max_cycle;Signal;HPM_P1;HPM_P2
2023/07/06 00:01:02;;;;;;;10.52;4.80;;;13.60;99.90;;;;;;5018591;28;20041;-63
2023/07/06 00:03:31;;;;;;;8.45;4.25;;;13.60;99.90;;;;;;5041899;28;20115;-63
2023/07/06 00:05:57;;;;;;;6.82;5.03;;;13.50;99.90;;;;;;5039133;28;20090;-63
2023/07/06 00:08:23;;;;;;;7.43;4.40;;;13.60;99.90;;;;;;5042861;28;20040;-63
2023/07/06 00:10:53;;;;;;;9.68;4.20;;;13.60;99.90;;;;;;5041219;28;20045;-63
2023/07/06 00:13:22;;;;;;;5.57;4.18;;;13.60;99.90;;;;;;5024316;28;20037;-63
2023/07/06 00:15:49;;;;;;;8.20;3.85;;;13.60;99.90;;;;;;5038668;28;20036;-63
2023/07/06 00:18:17;;;;;;;6.70;3.47;;;13.60;99.90;;;;;;5020498;28;20076;-63
2023/07/06 00:20:43;;;;;;;7.70;3.88;;;13.60;99.90;;;;;;5035056;28;20033;-63
2023/07/06 00:23:10;;;;;;;10.63;4.07;;;13.60;99.90;;;;;;5043733;28;20503;-63
2023/07/06 00:25:36;;;;;;;6.32;4.10;;;13.60;99.90;;;;;;5022053;28;20041;-63
2023/07/06 00:28:03;;;;;;;8.23;3.90;;;13.70;99.90;;;;;;5044250;28;20037;-63
2023/07/06 00:33:19;;;;;;;5.15;3.75;;;13.60;99.90;;;;;;5041128;28;20045;-63
2023/07/06 00:35:46;;;;;;;10.95;4.15;;;13.60;99.90;;;;;;5040966;28;20048;-63
2023/07/06 00:38:17;;;;;;;10.10;3.80;;;13.60;99.90;;;;;;5038281;28;20544;-63
2023/07/06 00:40:46;;;;;;;9.55;4.78;;;13.60;99.90;;;;;;5040134;28;20108;-63
2023/07/06 00:43:21;;;;;;;9.70;4.15;;;13.70;99.90;;;;;;5045126;28;20072;-63
2023/07/06 00:45:52;;;;;;;5.75;4.35;;;13.60;99.90;;;;;;5043174;28;20096;-63
2023/07/06 00:48:22;;;;;;;9.02;4.18;;;13.60;99.90;;;;;;5023507;28;20115;-63
2023/07/06 00:50:54;;;;;;;10.18;3.95;;;13.60;99.90;;;;;;5043323;28;20041;-63
2023/07/06 00:53:21;;;;;;;8.48;3.88;;;13.60;99.90;;;;;;5045086;28;20041;-62
2023/07/06 00:55:47;;;;;;;9.70;4.47;;;13.60;99.90;;;;;;5034392;28;20391;-63
2023/07/06 00:58:24;;;;;;;9.18;4.53;;;13.60;99.90;;;;;;5044072;28;20040;-63
2023/07/06 01:00:54;;;;;;;8.07;4.07;;;13.60;99.90;;;;;;5035982;28;20450;-63
2023/07/06 01:03:21;;;;;;;5.95;4.03;;;13.60;99.90;;;;;;5041227;28;20045;-63
2023/07/06 01:05:50;;;;;;;6.70;4.10;;;13.60;99.90;;;;;;5038816;28;20527;-63
2023/07/06 01:08:20;;;;;;;7.35;4.15;;;13.60;99.90;;;;;;5056418;28;20085;-63
2023/07/06 01:10:48;;;;;;;7.68;4.50;;;13.50;99.90;;;;;;5033924;28;20629;-63
2023/07/06 01:13:14;;;;;;;6.45;4.40;;;13.50;99.90;;;;;;5044365;28;20033;-63
2023/07/06 01:15:51;;;;;;;7.65;4.10;;;13.50;99.90;;;;;;5023727;28;20538;-63
2023/07/06 01:18:36;;;;;;;9.07;4.50;;;13.60;99.90;;;;;;5019473;28;20454;-63
2023/07/06 01:21:06;;;;;;;8.48;4.22;;;13.60;99.90;;;;;;5036990;28;20041;-63
2023/07/06 01:24:05;;;;;;;10.25;4.70;;;13.60;99.90;;;;;;5030165;28;20041;-63
2023/07/06 01:27:10;;;;;;;6.25;4.07;;;13.60;99.90;;;;;;5034684;28;20045;-63
2023/07/06 01:29:56;;;;;;;8.80;4.53;;;13.60;99.90;;;;;;5037698;28;20515;-63
2023/07/06 01:32:25;;;;;;;7.55;3.40;;;13.60;99.90;;;;;;5044976;28;20048;-63
2023/07/06 01:34:57;;;;;;;9.70;4.05;;;13.60;99.90;;;;;;5044225;28;20103;-63
2023/07/06 01:37:32;;;;;;;6.45;3.92;;;13.60;99.90;;;;;;5037614;28;20187;-63
2023/07/06 01:39:58;;;;;;;6.22;3.97;;;13.60;99.90;;;;;;5046385;28;20045;-63
2023/07/06 01:42:34;;;;;;;5.75;3.70;;;13.60;99.90;;;;;;5047066;28;20104;-63
2023/07/06 01:45:10;;;;;;;7.47;4.03;;;13.70;99.90;;;;;;5028584;28;20044;-63
2023/07/06 01:47:42;;;;;;;8.55;3.92;;;13.70;99.90;;;;;;5036936;28;20124;-63
2023/07/06 01:50:12;;;;;;;7.40;3.75;;;13.70;99.90;;;;;;5034289;28;20397;-63
2023/07/06 01:52:51;;;;;;;7.45;3.78;;;13.80;99.90;;;;;;5043224;28;20038;-63
2023/07/06 01:55:26;;;;;;;7.20;3.63;;;13.80;99.90;;;;;;5038218;28;20125;-63
2023/07/06 01:58:27;;;;;;;6.60;3.33;;;13.80;99.90;;;;;;5041020;28;20131;-63
2023/07/06 02:01:06;;;;;;;7.53;3.90;;;13.80;99.90;;;;;;5043678;28;20496;-63
2023/07/06 02:03:33;;;;;;;6.13;3.50;;;13.80;99.90;;;;;;5044202;28;20072;-63
2023/07/06 02:06:00;;;;;;;8.85;3.45;;;13.80;99.90;;;;;;5043266;28;20526;-63
2023/07/06 02:08:27;;;;;;;5.63;3.47;;;13.90;99.90;;;;;;5023476;28;20539;-63
2023/07/06 02:10:53;;;;;;;8.45;3.88;;;13.90;99.90;;;;;;5047590;28;20510;-63
2023/07/06 02:13:18;;;;;;;5.63;3.22;;;13.90;99.90;;;;;;5027059;28;20041;-63
2023/07/06 02:15:44;;;;;;;9.60;3.65;;;13.80;99.90;;;;;;5046247;28;20052;-62
2023/07/06 02:18:10;;;;;;;7.90;3.90;;;13.90;99.90;;;;;;5039611;28;20124;-63
2023/07/06 02:20:35;;;;;;;5.53;3.20;;;13.90;99.90;;;;;;5047137;28;20037;-63
2023/07/06 02:23:01;;;;;;;7.88;3.83;;;13.80;99.90;;;;;;5046569;28;20388;-62
2023/07/06 02:25:27;;;;;;;5.38;3.67;;;13.80;99.90;;;;;;5044166;28;20044;-62
2023/07/06 02:27:53;;;;;;;10.05;4.55;;;13.80;99.90;;;;;;5040009;28;20051;-62
2023/07/06 02:30:18;;;;;;;6.50;3.83;;;13.80;99.90;;;;;;5044939;28;20076;-62
2023/07/06 02:32:46;;;;;;;6.22;3.72;;;13.70;99.90;;;;;;5021246;28;20072;-62
2023/07/06 02:35:12;;;;;;;8.63;4.50;;;13.70;99.90;;;;;;5027821;28;20041;-62
2023/07/06 02:37:38;;;;;;;7.07;3.80;;;13.70;99.90;;;;;;5050299;28;20551;-62
2023/07/06 02:40:13;;;;;;;8.20;3.78;;;13.70;99.90;;;;;;5032651;28;20076;-62
2023/07/06 02:42:42;;;;;;;9.40;4.10;;;13.70;99.90;;;;;;5043765;28;20041;-62
2023/07/06 02:45:09;;;;;;;6.43;4.70;;;13.60;99.90;;;;;;5041071;28;20161;-62
2023/07/06 02:47:36;;;;;;;9.48;4.75;;;13.60;99.90;;;;;;5030233;28;20053;-62
2023/07/06 02:50:04;;;;;;;7.28;4.80;;;13.50;99.90;;;;;;5035218;28;20060;-62
2023/07/06 02:52:29;;;;;;;10.45;5.10;;;13.50;99.90;;;;;;5036349;28;20512;-63
2023/07/06 02:54:55;;;;;;;6.47;5.75;;;13.40;99.90;;;;;;5042133;28;20037;-62
2023/07/06 02:57:21;;;;;;;6.15;4.72;;;13.30;99.90;;;;;;5023643;28;20049;-62
2023/07/06 02:59:46;;;;;;;8.77;5.35;;;13.30;99.90;;;;;;5039217;28;20060;-62
2023/07/06 03:02:12;;;;;;;7.55;5.68;;;13.20;99.90;;;;;;5033308;28;20040;-62
2023/07/06 03:04:38;;;;;;;9.02;5.00;;;13.10;99.90;;;;;;5044935;28;20043;-62
2023/07/06 03:07:05;;;;;;;12.85;6.82;;;13.10;99.90;;;;;;5021947;28;20044;-62
2023/07/06 03:09:32;;;;;;;9.23;5.80;;;13.10;99.90;;;;;;5042512;28;20532;-62
2023/07/06 03:11:59;;;;;;;8.40;5.35;;;13.00;99.90;;;;;;5048815;28;20055;-62
2023/07/06 03:14:25;;;;;;;8.38;6.18;;;13.00;99.90;;;;;;5031369;28;20040;-62
2023/07/06 03:16:54;;;;;;;11.90;6.03;;;13.00;99.90;;;;;;5039594;28;20049;-62
2023/07/06 03:19:21;;;;;;;10.32;5.95;;;13.00;99.90;;;;;;5040949;28;20037;-62
2023/07/06 03:21:47;;;;;;;8.00;6.60;;;13.00;99.90;;;;;;5020802;28;20041;-62
2023/07/06 03:24:13;;;;;;;9.77;6.20;;;12.90;99.90;;;;;;5033987;28;20489;-63
2023/07/06 03:26:41;;;;;;;10.07;6.32;;;12.90;99.90;;;;;;5040413;28;20041;-62
2023/07/06 03:29:08;;;;;;;13.77;6.30;;;12.90;99.90;;;;;;5028111;28;20531;-62
2023/07/06 03:31:34;;;;;;;9.10;6.38;;;12.90;99.90;;;;;;5040345;28;20172;-62
2023/07/06 03:34:01;;;;;;;9.63;6.82;;;12.90;99.90;;;;;;5038785;28;20111;-62
2023/07/06 03:36:27;;;;;;;9.80;6.63;;;12.90;99.90;;;;;;5042224;28;20118;-62
2023/07/06 03:38:53;;;;;;;8.82;7.40;;;12.90;99.90;;;;;;5040681;28;20037;-62
2023/07/06 03:41:19;;;;;;;12.95;8.55;;;12.90;99.90;;;;;;5039442;28;20045;-62
2023/07/06 03:43:45;;;;;;;10.15;6.93;;;12.90;99.90;;;;;;5041394;28;20033;-62
2023/07/06 03:46:12;;;;;;;9.73;6.47;;;12.90;99.90;;;;;;5028259;28;20045;-62
2023/07/06 03:48:45;;;;;;;10.57;7.60;;;13.00;99.90;;;;;;5043359;28;20034;-63
2023/07/06 03:51:13;;;;;;;9.05;7.32;;;13.00;99.90;;;;;;5044536;28;20067;-62
2023/07/06 03:53:38;;;;;;;11.98;8.43;;;13.00;99.90;;;;;;5034377;28;20041;-63
2023/07/06 03:56:06;;;;;;;10.20;7.85;;;13.00;99.90;;;;;;5028399;28;20041;-62
2023/07/06 03:58:33;;;;;;;11.70;8.45;;;13.10;99.90;;;;;;5043044;28;20087;-62
2023/07/06 04:00:58;;;;;;;9.73;7.55;;;13.10;99.90;;;;;;5015247;28;20562;-62
2023/07/06 04:03:31;;;;;;;13.75;8.07;;;13.10;99.90;;;;;;5046488;28;20037;-62
2023/07/06 04:05:57;;;;;;;10.63;8.07;;;13.10;99.90;;;;;;5042459;28;20173;-62
2023/07/06 04:08:23;;;;;;;13.73;8.32;;;13.10;99.90;;;;;;5025104;28;20037;-62
2023/07/06 04:10:49;;;;;;;14.38;9.30;;;13.10;99.90;;;;;;5039991;28;20438;-62
2023/07/06 04:13:15;;;;;;;11.70;8.70;;;13.10;99.90;;;;;;5040551;28;20472;-62
2023/07/06 04:15:45;;;;;;;14.02;8.25;;;13.10;99.90;;;;;;5024792;28;20278;-62
2023/07/06 04:18:11;;;;;;;11.77;9.05;;;13.10;99.90;;;;;;5041111;28;20047;-62
2023/07/06 04:20:38;;;;;;;10.60;8.25;;;13.10;99.90;;;;;;5041133;28;20470;-62
2023/07/06 04:23:04;;;;;;;13.75;8.80;;;13.10;99.90;;;;;;5032198;28;20174;-62
2023/07/06 04:25:33;;;;;;;14.77;9.40;;;13.10;99.90;;;;;;5037080;28;20076;-62
2023/07/06 04:28:02;;;;;;;11.73;8.65;;;13.10;99.90;;;;;;5024278;28;20040;-62
2023/07/06 04:30:32;;;;;;;15.27;9.75;;;13.20;99.90;;;;;;5026521;28;20036;-62
2023/07/06 04:32:59;;;;;;;13.85;10.20;;;13.20;99.90;;;;;;5035030;28;20060;-62
2023/07/06 04:35:25;;;;;;;16.85;10.77;;;13.20;99.90;;;;;;5046228;28;20077;-62
2023/07/06 04:37:51;;;;;;;15.77;10.55;;;13.20;99.90;;;;;;5039747;28;20076;-62
2023/07/06 04:40:18;;;;;;;15.45;9.02;;;13.30;99.90;;;;;;5024540;28;20049;-62
2023/07/06 04:42:46;;;;;;;14.00;10.02;;;13.30;99.90;;;;;;5037108;28;20041;-62
2023/07/06 04:45:16;;;;;;;11.13;8.75;;;13.40;99.90;;;;;;5040382;28;20030;-62
2023/07/06 04:47:44;;;;;;;14.93;9.30;;;13.40;99.90;;;;;;5045288;28;20045;-62
2023/07/06 04:50:17;;;;;;;16.60;10.25;;;13.50;99.90;;;;;;5032270;28;20042;-62
2023/07/06 04:52:44;;;;;;;16.98;9.95;;;13.50;99.90;;;;;;5040809;28;20044;-62
2023/07/06 04:55:10;;;;;;;17.50;9.65;;;13.50;99.90;;;;;;5039147;28;20358;-63
2023/07/06 04:57:36;;;;;;;12.50;9.40;;;13.60;99.90;;;;;;5034164;28;20099;-62
2023/07/06 05:00:17;;;;;;;18.05;9.57;;;13.60;99.90;;;;;;5031198;28;20477;-62
2023/07/06 05:02:43;;;;;;;14.23;9.55;;;13.70;99.90;;;;;;5044678;28;20095;-62
2023/07/06 05:05:13;;;;;;;14.10;9.90;;;13.70;99.90;;;;;;5036453;28;20069;-62
2023/07/06 05:07:40;;;;;;;15.88;9.15;;;13.80;99.90;;;;;;5041873;28;20099;-63
2023/07/06 05:10:06;;;;;;;17.42;9.85;;;13.80;99.90;;;;;;5047598;28;20037;-62
2023/07/06 05:12:32;;;;;;;18.02;10.63;;;13.90;99.90;;;;;;5050250;28;20044;-62
2023/07/06 05:14:58;;;;;;;16.33;10.40;;;13.90;99.90;;;;;;5044063;28;20037;-62
2023/07/06 05:17:24;;;;;;;17.08;11.65;;;14.00;99.90;;;;;;5029624;28;20549;-62
2023/07/06 05:19:50;;;;;;;15.38;10.85;;;14.10;99.90;;;;;;5040887;28;20095;-62
2023/07/06 05:22:18;;;;;;;18.35;12.70;;;14.20;99.90;;;;;;5023923;28;20073;-62
2023/07/06 05:24:48;;;;;;;23.27;12.20;;;14.30;99.90;;;;;;5043965;28;20044;-62
2023/07/06 05:27:14;;;;;;;19.73;10.73;;;14.40;99.90;;;;;;5052146;28;20253;-62
2023/07/06 05:29:40;;;;;;;17.63;10.48;;;14.40;99.90;;;;;;5045829;28;20471;-62
2023/07/06 05:32:07;;;;;;;23.55;11.30;;;14.50;99.90;;;;;;5042362;28;20052;-62
2023/07/06 05:34:33;;;;;;;15.55;10.85;;;14.60;99.90;;;;;;5040116;28;20428;-62
2023/07/06 05:36:59;;;;;;;19.00;10.88;;;14.70;99.90;;;;;;5037411;28;20479;-62
2023/07/06 05:39:25;;;;;;;19.02;11.05;;;14.80;99.90;;;;;;5042308;28;20186;-63
2023/07/06 05:41:50;;;;;;;19.60;11.25;;;14.90;99.90;;;;;;5042066;28;20059;-62
2023/07/06 05:44:16;;;;;;;20.33;12.02;;;15.00;99.90;;;;;;5038561;28;20127;-63
2023/07/06 05:46:42;;;;;;;21.17;12.52;;;15.10;99.90;;;;;;5042053;28;20618;-63
2023/07/06 05:49:08;;;;;;;22.65;10.85;;;15.20;99.90;;;;;;5035798;28;20053;-62
2023/07/06 05:51:33;;;;;;;20.38;11.43;;;15.40;99.90;;;;;;5024808;28;20034;-62
2023/07/06 05:53:59;;;;;;;20.35;10.90;;;15.40;99.90;;;;;;5043175;28;20037;-62
2023/07/06 05:56:25;;;;;;;25.42;10.35;;;15.50;99.90;;;;;;5045190;28;20045;-62
2023/07/06 05:58:51;;;;;;;23.90;10.68;;;15.70;99.90;;;;;;5036376;28;20029;-63
2023/07/06 06:01:23;;;;;;;18.52;10.57;;;15.80;99.90;;;;;;5050348;28;20377;-62
2023/07/06 06:03:49;;;;;;;22.13;10.45;;;15.90;99.90;;;;;;5041544;28;20049;-62
2023/07/06 06:06:15;;;;;;;21.63;10.63;;;16.00;99.90;;;;;;5036294;28;20041;-62
2023/07/06 06:08:41;;;;;;;17.67;10.23;;;16.10;99.90;;;;;;5012413;28;20037;-63
2023/07/06 06:11:07;;;;;;;17.35;10.27;;;16.10;99.90;;;;;;5029886;28;20071;-63
2023/07/06 06:13:33;;;;;;;16.65;9.68;;;16.20;99.90;;;;;;5043770;28;20129;-62
2023/07/06 06:15:58;;;;;;;20.23;9.55;;;16.30;99.90;;;;;;5041112;28;20067;-63
2023/07/06 06:18:27;;;;;;;19.58;10.68;;;16.40;99.90;;;;;;5041079;28;20492;-62
2023/07/06 06:20:52;;;;;;;20.35;10.68;;;16.50;99.90;;;;;;5030692;28;20068;-62
2023/07/06 06:23:21;;;;;;;21.58;10.20;;;16.60;99.90;;;;;;5039710;28;20452;-62
2023/07/06 06:25:47;;;;;;;20.52;9.85;;;16.60;99.90;;;;;;5036278;28;20096;-63
2023/07/06 06:28:13;;;;;;;15.50;9.25;;;16.70;99.90;;;;;;5043044;28;20497;-62
2023/07/06 06:30:40;;;;;;;20.08;9.65;;;16.80;99.90;;;;;;5043535;28;20041;-62
2023/07/06 06:33:09;;;;;;;20.00;8.57;;;16.80;99.90;;;;;;5041784;28;20489;-62
2023/07/06 06:35:35;;;;;;;12.63;7.78;;;17.00;99.90;;;;;;5048180;28;20051;-62
2023/07/06 06:38:05;;;;;;;14.60;7.90;;;17.00;99.90;;;;;;5035434;28;20048;-62
2023/07/06 06:40:32;;;;;;;16.02;7.45;;;17.00;99.90;;;;;;5035229;28;20042;-62
2023/07/06 06:43:00;;;;;;;13.32;6.60;;;17.20;99.90;;;;;;5044536;28;20041;-62
2023/07/06 06:45:26;;;;;;;18.42;7.63;;;17.30;99.90;;;;;;5048331;28;20055;-62
2023/07/06 06:47:52;;;;;;;16.80;7.85;;;17.30;99.90;;;;;;5043447;28;20094;-63
2023/07/06 06:50:19;;;;;;;17.58;6.57;;;17.40;99.90;;;;;;5024059;28;20045;-62
2023/07/06 06:52:46;;;;;;;15.98;6.35;;;17.50;99.90;;;;;;5040100;28;20044;-62
2023/07/06 06:55:13;;;;;;;14.48;6.63;;;17.60;99.90;;;;;;5043585;28;20033;-62
2023/07/06 06:57:39;;;;;;;17.45;5.95;;;17.70;99.90;;;;;;5044070;28;20049;-62
2023/07/06 07:00:06;;;;;;;16.05;6.50;;;17.70;99.90;;;;;;5038773;28;20091;-62
2023/07/06 07:02:33;;;;;;;11.38;5.20;;;17.70;99.90;;;;;;5046683;28;20040;-62
2023/07/06 07:05:00;;;;;;;14.70;5.40;;;17.70;99.90;;;;;;5042380;28;20521;-62
2023/07/06 07:07:27;;;;;;;14.18;4.70;;;17.80;99.90;;;;;;5020284;28;20109;-62
2023/07/06 07:09:53;;;;;;;10.35;4.53;;;17.90;99.90;;;;;;5051725;28;20076;-62
2023/07/06 07:12:19;;;;;;;11.60;4.10;;;18.10;99.90;;;;;;5047415;28;20045;-62
2023/07/06 07:14:45;;;;;;;6.45;3.85;;;18.10;99.90;;;;;;5033842;28;20041;-62
2023/07/06 07:17:13;;;;;;;10.65;4.43;;;18.10;99.90;;;;;;5043727;28;20408;-62
2023/07/06 07:19:39;;;;;;;13.10;4.15;;;18.20;99.90;;;;;;5039533;28;20053;-62
2023/07/06 07:22:06;;;;;;;11.18;3.60;;;18.20;99.90;;;;;;5046469;28;20037;-62
2023/07/06 07:24:32;;;;;;;8.57;3.08;;;18.40;99.90;;;;;;5041484;28;20073;-62
2023/07/06 07:27:02;;;;;;;8.20;2.85;;;18.40;99.90;;;;;;5044304;28;20130;-62
2023/07/06 07:29:28;;;;;;;5.88;2.28;;;18.50;99.90;;;;;;5042613;28;20045;-62
2023/07/06 07:31:54;;;;;;;4.70;1.90;;;18.50;99.90;;;;;;5036946;28;20068;-62
2023/07/06 07:34:20;;;;;;;7.90;3.08;;;18.60;99.90;;;;;;5006683;28;20146;-62
2023/07/06 07:36:46;;;;;;;8.68;3.17;;;18.60;99.90;;;;;;5041997;28;20036;-62
2023/07/06 07:39:16;;;;;;;6.63;2.33;;;18.70;99.90;;;;;;5037137;28;20037;-63
2023/07/06 07:41:45;;;;;;;5.45;1.98;;;18.70;99.90;;;;;;5040839;28;20124;-62
2023/07/06 07:44:11;;;;;;;4.47;1.80;;;18.60;99.90;;;;;;5049073;28;20500;-62
2023/07/06 07:46:37;;;;;;;5.95;2.22;;;18.60;99.90;;;;;;5032301;28;20107;-63
2023/07/06 07:49:03;;;;;;;4.25;1.98;;;18.70;99.90;;;;;;5040482;28;20047;-62
2023/07/06 07:51:31;;;;;;;6.65;1.95;;;18.80;99.90;;;;;;5038497;28;20497;-62
2023/07/06 07:53:57;;;;;;;6.57;2.13;;;19.00;99.90;;;;;;5013458;28;20063;-62
2023/07/06 07:56:24;;;;;;;6.65;2.20;;;19.00;99.90;;;;;;5033523;28;20045;-62
2023/07/06 07:58:52;;;;;;;9.02;2.72;;;19.00;99.90;;;;;;5042553;28;20045;-62
2023/07/06 08:01:21;;;;;;;7.60;2.50;;;18.70;99.90;;;;;;5045067;28;20037;-62
2023/07/06 08:03:47;;;;;;;8.52;2.55;;;18.60;99.90;;;;;;5037503;28;20129;-62
2023/07/06 08:06:17;;;;;;;4.82;1.95;;;18.50;99.90;;;;;;5036436;28;20136;-62
2023/07/06 08:08:44;;;;;;;5.53;2.40;;;18.50;99.90;;;;;;5017631;28;20036;-62
2023/07/06 08:11:20;;;;;;;5.47;2.22;;;18.40;99.90;;;;;;5037064;28;20041;-62
2023/07/06 08:13:50;;;;;;;7.38;2.38;;;18.40;99.90;;;;;;5023859;28;20049;-62
2023/07/06 08:16:16;;;;;;;6.78;2.72;;;18.50;99.90;;;;;;5040513;28;20060;-63
2023/07/06 08:18:43;;;;;;;4.53;2.05;;;18.70;99.90;;;;;;5045085;28;20120;-62
2023/07/06 08:21:10;;;;;;;5.63;1.98;;;18.90;99.90;;;;;;5037115;28;20074;-62
2023/07/06 08:23:40;;;;;;;4.43;1.95;;;19.10;99.90;;;;;;5025781;28;20399;-62
2023/07/06 08:26:08;;;;;;;4.40;1.90;;;19.20;99.90;;;;;;5038422;28;20094;-62
2023/07/06 08:28:34;;;;;;;6.82;2.20;;;19.30;99.90;;;;;;5043959;28;20048;-62
2023/07/06 08:31:03;;;;;;;3.70;2.00;;;19.30;99.90;;;;;;5042427;28;20099;-63
2023/07/06 08:33:35;;;;;;;3.35;1.70;;;19.30;99.90;;;;;;5034965;28;20041;-62
2023/07/06 08:36:03;;;;;;;5.20;2.00;;;19.20;99.90;;;;;;5038427;28;20045;-62
2023/07/06 08:38:31;;;;;;;3.55;1.52;;;19.10;99.90;;;;;;5036497;28;20053;-62
2023/07/06 08:40:59;;;;;;;3.80;1.33;;;19.00;99.90;;;;;;5041244;28;20040;-62
2023/07/06 08:43:26;;;;;;;4.15;1.40;;;18.90;99.90;;;;;;5036267;28;20113;-62
2023/07/06 08:46:00;;;;;;;3.00;1.85;;;18.90;99.90;;;;;;5048825;28;20045;-62
2023/07/06 08:48:27;;;;;;;4.50;1.75;;;18.90;99.90;;;;;;5043836;28;20052;-62
2023/07/06 08:50:58;;;;;;;5.22;2.10;;;18.80;99.90;;;;;;5045048;28;20425;-62
2023/07/06 08:53:28;;;;;;;4.80;1.60;;;19.00;99.90;;;;;;5045346;28;20437;-63
2023/07/06 08:55:57;;;;;;;4.32;1.95;;;19.30;99.90;;;;;;5040826;28;20320;-63
2023/07/06 08:58:32;;;;;;;5.68;1.50;;;19.40;99.60;;;;;;5040131;28;20045;-62
2023/07/06 09:01:16;;;;;;;4.20;1.63;;;19.50;99.40;;;;;;5030718;28;20037;-62
2023/07/06 09:03:44;;;;;;;;;;;19.70;99.90;;;;;;5046172;28;20140;-62
2023/07/06 09:06:18;;;;;;;5.35;1.70;;;19.90;99.90;;;;;;5049080;28;19917;-62
2023/07/06 09:08:45;;;;;;;3.20;1.65;;;20.00;99.90;;;;;;5047015;28;20040;-62
2023/07/06 09:11:13;;;;;;;3.55;1.70;;;20.10;99.30;;;;;;5044028;28;20392;-62
2023/07/06 09:13:49;;;;;;;4.28;1.40;;;20.10;99.10;;;;;;5046717;28;20143;-62
2023/07/06 09:16:20;;;;;;;4.38;1.30;;;20.10;98.70;;;;;;5042519;28;20056;-62
2023/07/06 09:18:52;;;;;;;3.38;1.73;;;20.10;98.40;;;;;;5045730;28;20048;-62
2023/07/06 09:21:25;;;;;;;1.85;1.40;;;20.10;98.00;;;;;;5028536;28;20120;-62
2023/07/06 09:23:52;;;;;;;2.67;1.30;;;20.20;98.50;;;;;;5044667;28;20052;-62
2023/07/06 09:26:23;;;;;;;3.50;1.33;;;20.30;98.40;;;;;;5052504;28;20438;-62
2023/07/06 09:28:49;;;;;;;2.63;1.67;;;20.30;97.80;;;;;;5020941;28;20045;-62
2023/07/06 09:31:21;;;;;;;3.78;1.45;;;20.40;97.80;;;;;;5043847;28;20423;-62
2023/07/06 09:33:53;;;;;;;3.75;1.10;;;20.40;96.90;;;;;;5037209;28;20504;-63
2023/07/06 09:36:25;;;;;;;3.13;1.70;;;20.60;97.40;;;;;;5022327;28;20064;-63
2023/07/06 09:38:51;;;;;;;7.20;1.90;;;20.80;97.90;;;;;;5045033;28;20116;-62
2023/07/06 09:41:23;;;;;;;3.72;1.38;;;21.10;97.30;;;;;;5025853;28;20293;-63
2023/07/06 09:44:03;;;;;;;4.35;1.65;;;20.90;95.60;;;;;;5031023;28;20523;-62
2023/07/06 09:46:35;;;;;;;5.28;1.45;;;20.80;96.60;;;;;;5048003;28;20048;-62
2023/07/06 09:49:02;;;;;;;3.13;1.40;;;20.70;96.80;;;;;;5044112;28;20488;-62
2023/07/06 09:51:44;;;;;;;4.70;1.40;;;20.80;96.70;;;;;;5024487;28;20041;-62
2023/07/06 09:54:17;;;;;;;4.03;1.38;;;20.90;96.90;;;;;;5034061;28;20121;-63
2023/07/06 09:56:44;;;;;;;2.67;1.88;;;20.90;97.00;;;;;;5042482;28;20045;-63
2023/07/06 09:59:11;;;;;;;4.00;1.40;;;20.80;95.60;;;;;;5050207;28;20140;-63
2023/07/06 10:02:02;;;;;;;5.85;1.80;;;20.90;95.00;;;;;;5027795;28;20049;-62
2023/07/06 10:05:02;;;;;;;5.15;1.77;;;20.90;96.10;;;;;;5040212;28;20045;-62
2023/07/06 10:07:32;;;;;;;8.05;2.05;;;21.40;97.30;;;;;;5043972;28;20162;-62
2023/07/06 10:09:57;;;;;;;3.65;1.83;;;21.50;97.40;;;;;;5040469;28;20044;-62
2023/07/06 10:12:26;;;;;;;3.58;1.88;;;21.30;96.60;;;;;;5043673;28;20423;-63
2023/07/06 10:14:53;;;;;;;3.75;1.50;;;20.90;96.70;;;;;;5041960;28;20130;-62
2023/07/06 10:17:35;;;;;;;4.40;1.50;;;20.80;96.90;;;;;;5027755;28;20435;-62
2023/07/06 10:20:17;;;;;;;4.45;1.60;;;20.60;96.70;;;;;;5040485;28;20053;-62
2023/07/06 10:23:14;;;;;;;6.82;2.00;;;20.30;97.70;;;;;;5029256;28;20049;-62
2023/07/06 10:26:09;;;;;;;4.15;1.95;;;20.10;97.80;;;;;;5038512;28;20631;-62
2023/07/06 10:28:40;;;;;;;7.65;2.13;;;20.00;98.80;;;;;;5034533;28;20045;-62
2023/07/06 10:31:11;;;;;;;5.80;2.35;;;20.10;99.30;;;;;;5038261;28;20045;-61
2023/07/06 10:33:48;;;;;;;4.63;1.90;;;20.10;99.50;;;;;;5034840;28;20561;-61
2023/07/06 10:36:15;;;;;;;3.22;1.58;;;20.20;99.40;;;;;;5041696;28;20049;-62
2023/07/06 10:38:41;;;;;;;4.25;1.80;;;20.10;99.50;;;;;;5046536;28;20044;-62
2023/07/06 10:41:10;;;;;;;8.20;1.90;;;20.00;99.10;;;;;;5042377;28;20102;-62
2023/07/06 10:43:40;;;;;;;3.88;2.00;;;20.00;99.30;;;;;;5044671;28;20037;-62
2023/07/06 10:46:30;;;;;;;6.22;2.03;;;20.00;99.30;;;;;;5046476;28;20460;-62
2023/07/06 10:48:59;;;;;;;4.13;2.30;;;20.00;99.10;;;;;;5038719;28;20041;-62
2023/07/06 10:51:28;;;;;;;5.75;2.35;;;20.00;99.00;;;;;;5044454;28;20033;-62
2023/07/06 10:54:16;;;;;;;6.45;2.17;;;20.10;99.60;;;;;;5027695;28;20033;-62
2023/07/06 10:56:47;;;;;;;4.00;1.92;;;20.40;99.00;;;;;;5034164;28;20045;-61
2023/07/06 10:59:20;;;;;;;4.55;1.77;;;20.60;99.10;;;;;;5036927;28;20033;-62
2023/07/06 11:01:47;;;;;;;4.55;2.13;;;20.50;98.40;;;;;;5044297;28;20040;-62
2023/07/06 11:04:41;;;;;;;3.75;1.60;;;20.50;98.70;;;;;;5037039;28;20198;-62
2023/07/06 11:07:12;;;;;;;4.78;1.70;;;20.40;98.70;;;;;;5039584;28;20079;-61
2023/07/06 11:10:09;;;;;;;5.10;1.83;;;20.50;98.60;;;;;;5035795;28;20060;-62
2023/07/06 11:12:52;;;;;;;5.38;1.65;;;20.40;98.60;;;;;;5037264;28;20480;-62
2023/07/06 11:15:23;;;;;;;3.83;1.38;;;20.60;98.80;;;;;;5048130;28;20045;-62
2023/07/06 11:17:51;;;;;;;3.13;1.40;;;20.90;98.20;;;;;;5044678;28;20056;-62
2023/07/06 11:20:37;;;;;;;4.30;1.85;;;21.00;96.20;;;;;;5039605;28;20050;-62
2023/07/06 11:23:04;;;;;;;3.58;1.50;;;21.10;96.10;;;;;;5032870;28;20076;-62
2023/07/06 11:25:31;;;;;;;4.20;1.13;;;21.40;96.30;;;;;;5045110;28;20049;-62
2023/07/06 11:28:05;;;;;;;2.47;1.30;;;21.70;96.20;;;;;;5038374;28;20551;-63
2023/07/06 11:30:36;;;;;;;2.97;1.40;;;21.90;95.00;;;;;;5045184;28;20424;-63
2023/07/06 11:33:20;;;;;;;3.05;1.13;;;22.10;95.10;;;;;;5036379;28;20080;-63
2023/07/06 11:35:55;;;;;;;3.50;1.40;;;22.20;94.00;;;;;;5028309;28;20049;-63
2023/07/06 11:38:55;;;;;;;3.92;1.50;;;22.10;93.90;;;;;;5028672;28;20049;-62
2023/07/06 11:41:43;;;;;;;2.65;1.30;;;21.80;94.10;;;;;;5040022;28;20408;-63
2023/07/06 11:44:31;;;;;;;4.63;1.42;;;21.60;93.30;;;;;;5036003;28;20267;-63
2023/07/06 11:47:16;;;;;;;3.83;1.05;;;21.80;94.20;;;;;;5043938;28;20099;-62
2023/07/06 11:49:43;;;;;;;2.47;1.20;;;22.00;93.90;;;;;;5035918;28;20395;-62
2023/07/06 11:52:15;;;;;;;4.28;1.38;;;22.40;94.70;;;;;;5044977;28;20045;-62
2023/07/06 11:57:42;;;;;;;2.08;1.48;;;22.60;93.70;;;;;;5039261;28;20132;-62
2023/07/06 12:00:18;;;;;;;1.55;1.15;;;22.80;94.10;;;;;;5037038;28;20419;-62
2023/07/06 12:02:55;;;;;;;2.78;1.23;;;22.80;94.10;;;;;;5039244;28;20152;-63
2023/07/06 12:05:33;;;;;;;3.78;1.10;;;23.00;93.00;;;;;;5041237;28;20079;-63
2023/07/06 12:08:14;;;;;;;2.83;1.27;;;22.90;93.00;;;;;;5022911;28;20045;-62
2023/07/06 12:10:45;;;;;;;2.65;1.10;;;23.10;93.40;;;;;;5042521;28;20041;-62
2023/07/06 12:13:35;;;;;;;2.15;1.10;;;23.40;93.70;;;;;;5033543;28;20458;-63
2023/07/06 12:16:07;;;;;;;4.05;1.20;;;23.50;91.90;;;;;;5015597;28;20057;-63
2023/07/06 12:18:35;;;;;;;2.88;1.35;;;23.30;92.00;;;;;;5037815;28;20458;-63
2023/07/06 12:21:01;;;;;;;3.92;1.33;;;23.10;92.00;;;;;;5040391;28;20064;-63
2023/07/06 12:23:27;;;;;;;2.50;1.40;;;23.20;91.80;;;;;;5037943;28;20049;-63
2023/07/06 12:25:55;;;;;;;6.68;1.83;;;23.30;92.70;;;;;;5020168;28;20042;-62
2023/07/06 12:28:21;;;;;;;3.33;1.33;;;22.90;92.40;;;;;;5045799;28;20044;-62
2023/07/06 12:30:52;;;;;;;2.78;1.60;;;23.20;92.90;;;;;;5035752;28;20041;-62
2023/07/06 12:33:20;;;;;;;2.92;1.30;;;23.00;91.70;;;;;;5038066;28;20467;-63
2023/07/06 12:35:47;;;;;;;1.90;1.08;;;22.70;92.20;;;;;;5038200;28;20508;-63
2023/07/06 12:38:15;;;;;;;3.58;1.27;;;22.80;92.40;;;;;;5038412;28;20041;-63
2023/07/06 12:40:41;;;;;;;2.78;1.50;;;22.80;92.40;;;;;;5036068;28;20531;-62
2023/07/06 12:43:24;;;;;;;2.28;1.42;;;23.10;92.00;;;;;;5035853;28;20167;-63
2023/07/06 12:45:52;;;;;;;6.65;1.70;;;23.30;92.30;;;;;;5035526;28;20420;-62
2023/07/06 12:48:20;;;;;;;4.68;1.20;;;23.50;91.40;;;;;;5043677;28;20182;-62
2023/07/06 12:50:47;;;;;;;2.80;1.75;;;23.50;91.10;;;;;;5040766;28;20063;-63
2023/07/06 12:53:22;;;;;;;2.60;1.20;;;23.20;91.40;;;;;;5037409;28;20459;-63
2023/07/06 12:55:49;;;;;;;2.97;1.38;;;22.90;92.20;;;;;;5037033;28;20052;-62
2023/07/06 12:58:28;;;;;;;3.83;1.30;;;23.10;92.20;;;;;;5041084;28;20037;-62
2023/07/06 13:01:30;;;;;;;5.35;2.17;;;23.40;92.50;;;;;;5040375;28;20044;-62
2023/07/06 13:04:08;;;;;;;3.25;1.50;;;23.60;92.40;;;;;;5013595;28;20567;-62